Time;durP1;ratioP1;P1;durP2;ratioP2;P2;SDS_P1;SDS_P2;PMS_P1;PMS_P2;Temp;Humidity;BMP_temperature;BMP_pressure;BME280_temperature;BME280_humidity;BME280_pressure;Samples;Min_cycle;Max_cycle;Signal;HPM_P1;HPM_P2
2024/04/01 00:00:06;;;;;;;4.00;3.07;;;21.60;95.30;;;;;;5065675;28;20452;-74
2024/04/01 00:02:31;;;;;;;3.03;2.70;;;21.60;95.20;;;;;;5066597;28;20467;-74
2024/04/01 00:04:58;;;;;;;3.90;3.50;;;21.60;95.00;;;;;;5065725;28;20821;-74
2024/04/01 00:07:24;;;;;;;3.50;2.87;;;21.60;94.90;;;;;;5059078;28;20829;-74
2024/04/01 00:09:50;;;;;;;3.23;2.90;;;21.60;94.80;;;;;;5055785;28;20454;-76
2024/04/01 00:12:16;;;;;;;3.33;2.40;;;21.50;94.70;;;;;;5057051;28;20205;-74
2024/04/01 00:14:43;;;;;;;5.77;3.87;;;21.50;94.70;;;;;;5054812;28;20488;-75
2024/04/01 00:17:10;;;;;;;3.80;3.10;;;21.50;94.70;;;;;;5053355;28;20209;-74
2024/04/01 00:19:36;;;;;;;2.80;2.27;;;21.50;94.70;;;;;;5062982;28;20494;-74
2024/04/01 00:22:02;;;;;;;4.73;3.27;;;21.50;94.70;;;;;;5058805;28;20472;-74
2024/04/01 00:24:29;;;;;;;3.97;3.40;;;21.50;94.70;;;;;;5055239;28;20458;-74
2024/04/01 00:26:55;;;;;;;3.80;3.27;;;21.50;94.80;;;;;;5047601;28;20292;-74
2024/04/01 00:29:21;;;;;;;4.00;3.00;;;21.40;94.70;;;;;;5062580;28;20481;-74
2024/04/01 00:31:47;;;;;;;7.73;3.50;;;21.40;94.80;;;;;;5062595;28;20239;-75
2024/04/01 00:34:15;;;;;;;4.97;3.10;;;21.40;94.80;;;;;;5061663;28;20471;-79
2024/04/01 00:36:41;;;;;;;3.40;3.10;;;21.40;95.00;;;;;;5063092;28;20222;-74
2024/04/01 00:39:08;;;;;;;3.60;2.73;;;21.40;95.10;;;;;;5058886;28;22643;-76
2024/04/01 00:41:33;;;;;;;4.07;2.77;;;21.40;95.10;;;;;;5058613;28;20205;-75
2024/04/01 00:44:00;;;;;;;4.90;2.93;;;21.30;94.90;;;;;;5058180;28;20482;-75
2024/04/01 00:46:26;;;;;;;4.38;3.28;;;21.30;94.80;;;;;;5057092;28;20198;-75
2024/04/01 00:48:53;;;;;;;5.20;2.97;;;21.30;94.70;;;;;;5066087;28;20205;-75
2024/04/01 00:51:20;;;;;;;3.90;2.60;;;21.30;94.60;;;;;;5067502;28;20290;-74
2024/04/01 00:53:47;;;;;;;5.95;2.80;;;21.30;94.60;;;;;;5066259;28;20436;-74
2024/04/01 00:56:15;;;;;;;5.35;2.80;;;21.30;94.30;;;;;;5063221;28;20267;-72
2024/04/01 00:58:42;;;;;;;5.10;2.70;;;21.20;94.30;;;;;;5061362;28;20191;-73
2024/04/01 01:01:08;;;;;;;2.90;2.17;;;21.20;94.60;;;;;;5058513;28;20454;-72
2024/04/01 01:03:35;;;;;;;3.70;2.92;;;21.20;94.20;;;;;;5060778;28;20444;-73
2024/04/01 01:06:02;;;;;;;3.63;2.50;;;21.20;94.20;;;;;;5064237;28;20250;-73
2024/04/01 01:08:30;;;;;;;4.10;3.27;;;21.10;94.20;;;;;;5067387;28;20444;-73
2024/04/01 01:10:56;;;;;;;3.07;2.37;;;21.10;94.20;;;;;;5063698;28;21164;-72
2024/04/01 01:13:23;;;;;;;4.97;2.53;;;21.10;94.10;;;;;;5070176;28;20452;-74
2024/04/01 01:15:49;;;;;;;4.10;2.90;;;21.10;94.10;;;;;;5068263;28;20662;-74
2024/04/01 01:18:16;;;;;;;4.03;2.70;;;21.10;94.20;;;;;;5066286;28;20201;-73
2024/04/01 01:20:41;;;;;;;3.20;2.37;;;21.00;94.10;;;;;;5066852;28;20450;-73
2024/04/01 01:23:09;;;;;;;3.20;2.60;;;21.00;94.10;;;;;;5066290;28;20459;-73
2024/04/01 01:25:37;;;;;;;3.60;2.53;;;21.00;94.10;;;;;;5067852;28;20194;-73
2024/04/01 01:28:06;;;;;;;2.88;2.45;;;21.00;94.20;;;;;;5068327;28;20454;-74
2024/04/01 01:30:35;;;;;;;3.80;2.83;;;20.90;94.50;;;;;;5069317;28;20364;-73
2024/04/01 01:33:04;;;;;;;5.30;2.70;;;20.90;94.10;;;;;;5071731;28;20453;-73
2024/04/01 01:35:34;;;;;;;2.50;2.30;;;20.90;94.10;;;;;;5074452;28;20480;-74
2024/04/01 01:38:01;;;;;;;4.47;2.22;;;20.90;94.10;;;;;;5067469;28;20989;-74
2024/04/01 01:40:28;;;;;;;4.30;2.63;;;20.90;94.10;;;;;;5065493;28;20194;-74
2024/04/01 01:42:55;;;;;;;3.33;2.60;;;20.90;94.10;;;;;;5063734;28;20506;-74
2024/04/01 01:45:21;;;;;;;3.92;2.40;;;20.90;94.10;;;;;;5071369;28;20448;-73
2024/04/01 01:47:48;;;;;;;2.97;2.40;;;20.90;94.10;;;;;;5066879;28;20196;-73
2024/04/01 01:50:14;;;;;;;2.90;2.37;;;20.80;94.00;;;;;;5067783;28;20808;-72
2024/04/01 01:52:40;;;;;;;4.50;2.67;;;20.80;94.00;;;;;;5069832;28;20445;-72
2024/04/01 01:55:06;;;;;;;5.00;2.95;;;20.80;94.00;;;;;;5066146;28;20514;-74
2024/04/01 01:57:35;;;;;;;3.80;2.47;;;20.80;94.00;;;;;;5073161;28;20396;-72
2024/04/01 02:00:00;;;;;;;3.13;2.35;;;20.80;94.00;;;;;;5074558;28;20462;-73
2024/04/01 02:02:27;;;;;;;3.90;2.67;;;20.80;94.10;;;;;;5068089;28;21355;-72
2024/04/01 02:04:53;;;;;;;4.20;2.88;;;20.70;94.00;;;;;;5072459;28;20691;-74
2024/04/01 02:07:19;;;;;;;2.73;2.33;;;20.70;94.00;;;;;;5073851;28;20205;-73
2024/04/01 02:09:45;;;;;;;3.50;3.10;;;20.70;94.10;;;;;;5070059;28;20209;-72
2024/04/01 02:12:12;;;;;;;3.43;2.30;;;20.70;94.10;;;;;;5074215;28;20194;-72
2024/04/01 02:14:39;;;;;;;2.42;1.98;;;20.70;94.10;;;;;;5071129;28;20206;-72
2024/04/01 02:17:07;;;;;;;3.72;2.08;;;20.60;93.20;;;;;;5071792;28;20298;-73
2024/04/01 02:19:33;;;;;;;2.90;2.20;;;20.60;93.00;;;;;;5073410;28;20251;-73
2024/04/01 02:22:00;;;;;;;3.55;2.30;;;20.50;92.90;;;;;;5073605;28;20288;-74
2024/04/01 02:24:26;;;;;;;2.75;1.98;;;20.50;93.90;;;;;;5071211;28;20709;-74
2024/04/01 02:26:53;;;;;;;2.20;2.00;;;20.60;94.00;;;;;;5070004;28;20271;-72
2024/04/01 02:29:18;;;;;;;2.00;1.75;;;20.60;94.10;;;;;;5071402;28;20782;-72
2024/04/01 02:31:46;;;;;;;4.47;2.73;;;20.50;94.00;;;;;;5069360;28;20208;-73
2024/04/01 02:34:12;;;;;;;6.57;2.20;;;20.50;94.10;;;;;;5072737;28;20928;-73
2024/04/01 02:36:39;;;;;;;2.50;2.10;;;20.50;93.90;;;;;;5069587;28;20221;-72
2024/04/01 02:39:05;;;;;;;3.63;2.25;;;20.50;94.10;;;;;;5069944;28;20211;-72
2024/04/01 02:41:31;;;;;;;2.27;2.07;;;20.50;94.10;;;;;;5070295;28;20186;-72
2024/04/01 02:43:57;;;;;;;4.03;2.53;;;20.50;94.20;;;;;;5068695;28;21167;-73
2024/04/01 02:46:24;;;;;;;3.50;2.70;;;20.40;94.10;;;;;;5069820;28;20205;-73
2024/04/01 02:48:51;;;;;;;3.35;2.28;;;20.40;94.10;;;;;;5071239;28;20278;-73
2024/04/01 02:51:18;;;;;;;3.95;2.30;;;20.40;94.20;;;;;;5062849;28;20241;-74
2024/04/01 02:53:47;;;;;;;3.15;2.60;;;20.40;94.20;;;;;;5070451;28;20207;-72
2024/04/01 02:56:14;;;;;;;2.33;2.13;;;20.40;94.20;;;;;;5066026;28;20213;-74
2024/04/01 02:58:41;;;;;;;3.20;2.90;;;20.30;94.20;;;;;;5070122;28;20201;-73
2024/04/01 03:01:07;;;;;;;2.70;2.35;;;20.40;94.20;;;;;;5068342;28;20226;-73
2024/04/01 03:03:33;;;;;;;2.40;2.20;;;20.30;94.20;;;;;;5067822;28;20232;-73
2024/04/01 03:06:01;;;;;;;2.20;1.63;;;20.30;94.20;;;;;;5068076;28;20210;-74
2024/04/01 03:08:28;;;;;;;3.50;2.55;;;20.30;94.30;;;;;;5070083;28;20467;-73
2024/04/01 03:10:59;;;;;;;2.45;2.13;;;20.30;94.30;;;;;;5058939;28;20205;-72
2024/04/01 03:13:26;;;;;;;2.22;2.03;;;20.30;94.30;;;;;;5066739;28;20202;-73
2024/04/01 03:15:53;;;;;;;2.47;2.28;;;20.30;94.40;;;;;;5066193;28;20226;-73
2024/04/01 03:18:18;;;;;;;2.60;2.30;;;20.20;94.30;;;;;;5065757;28;20198;-73
2024/04/01 03:20:46;;;;;;;2.83;2.10;;;20.20;94.30;;;;;;5066549;28;20778;-73
2024/04/01 03:23:13;;;;;;;3.50;2.80;;;20.20;94.30;;;;;;5066343;28;20204;-74
2024/04/01 03:25:39;;;;;;;3.30;1.90;;;20.20;94.40;;;;;;5064756;28;20294;-72
2024/04/01 03:28:05;;;;;;;3.10;2.80;;;20.20;94.40;;;;;;5065045;28;20198;-73
2024/04/01 03:30:32;;;;;;;3.43;3.13;;;20.20;94.40;;;;;;5065598;28;20271;-73
2024/04/01 03:32:58;;;;;;;3.45;2.17;;;20.10;94.40;;;;;;5066367;28;20440;-73
2024/04/01 03:35:24;;;;;;;3.33;2.00;;;20.10;94.40;;;;;;5066937;28;20326;-74
2024/04/01 03:37:51;;;;;;;2.47;2.22;;;20.10;94.40;;;;;;5065249;28;20197;-72
2024/04/01 03:40:20;;;;;;;2.92;2.08;;;20.10;94.50;;;;;;5067829;28;20204;-72
2024/04/01 03:42:46;;;;;;;2.35;2.10;;;20.10;94.50;;;;;;5064017;28;20234;-72
2024/04/01 03:45:12;;;;;;;3.65;2.13;;;20.10;94.50;;;;;;5068439;28;20690;-73
2024/04/01 03:47:39;;;;;;;3.40;2.53;;;20.10;94.50;;;;;;5067393;28;20194;-73
2024/04/01 03:50:05;;;;;;;3.65;2.38;;;20.00;94.50;;;;;;5065507;28;20291;-72
2024/04/01 03:52:34;;;;;;;2.65;1.63;;;20.00;94.50;;;;;;5064790;28;20320;-74
2024/04/01 03:54:59;;;;;;;2.90;2.00;;;20.00;94.50;;;;;;5064648;28;20255;-73
2024/04/01 03:57:27;;;;;;;2.27;1.97;;;20.00;94.60;;;;;;5064072;28;20701;-72
2024/04/01 03:59:53;;;;;;;3.08;2.50;;;20.00;94.60;;;;;;5065864;28;20213;-74
2024/04/01 04:02:20;;;;;;;2.50;2.00;;;20.00;94.60;;;;;;5062789;28;20189;-73
2024/04/01 04:04:46;;;;;;;2.83;2.40;;;20.00;94.60;;;;;;5061384;28;20198;-74
2024/04/01 04:07:13;;;;;;;2.20;1.70;;;19.90;94.60;;;;;;5063910;28;20800;-73
2024/04/01 04:09:39;;;;;;;2.45;2.20;;;19.90;94.60;;;;;;5064352;28;20521;-73
2024/04/01 04:12:06;;;;;;;3.83;2.08;;;19.90;94.60;;;;;;5062677;28;20828;-73
2024/04/01 04:14:33;;;;;;;2.95;2.00;;;19.90;94.70;;;;;;5065088;28;20194;-73
2024/04/01 04:17:00;;;;;;;3.08;2.00;;;19.90;94.70;;;;;;5064017;28;20209;-72
2024/04/01 04:19:26;;;;;;;3.28;2.70;;;19.90;94.70;;;;;;5065060;28;20194;-73
2024/04/01 04:21:53;;;;;;;3.43;2.10;;;19.90;94.70;;;;;;5065337;28;21153;-72
2024/04/01 04:24:19;;;;;;;3.00;1.90;;;19.90;94.80;;;;;;5063248;28;20209;-74
2024/04/01 04:26:46;;;;;;;2.63;2.20;;;19.90;94.80;;;;;;5061402;28;20600;-73
2024/04/01 04:29:12;;;;;;;2.85;2.13;;;19.80;94.70;;;;;;5063154;28;20460;-73
2024/04/01 04:31:40;;;;;;;2.17;1.97;;;19.80;94.70;;;;;;5067958;28;20271;-72
2024/04/01 04:34:08;;;;;;;3.72;2.45;;;19.80;94.80;;;;;;5067072;28;20193;-73
2024/04/01 04:36:35;;;;;;;3.30;2.03;;;19.80;94.80;;;;;;5066127;28;20272;-73
2024/04/01 04:39:01;;;;;;;3.05;2.30;;;19.80;94.80;;;;;;5067472;28;20206;-72
2024/04/01 04:41:29;;;;;;;3.27;2.23;;;19.80;94.90;;;;;;5064867;28;20215;-72
2024/04/01 04:43:54;;;;;;;2.13;1.65;;;19.80;94.90;;;;;;5064232;28;20201;-73
2024/04/01 04:46:21;;;;;;;2.83;2.13;;;19.70;94.80;;;;;;5066935;28;20229;-73
2024/04/01 04:48:49;;;;;;;2.22;1.60;;;19.70;94.80;;;;;;5067447;28;20300;-72
2024/04/01 04:51:15;;;;;;;3.15;2.30;;;19.70;94.90;;;;;;5064020;28;20202;-74
2024/04/01 04:53:41;;;;;;;2.13;1.80;;;19.70;94.90;;;;;;5065649;28;20201;-72
2024/04/01 04:56:08;;;;;;;2.50;1.90;;;19.70;94.90;;;;;;5064165;28;20228;-73
2024/04/01 04:58:35;;;;;;;1.92;1.83;;;19.70;94.90;;;;;;5075398;28;20944;-74
2024/04/01 05:01:05;;;;;;;3.03;1.80;;;19.70;95.30;;;;;;5074904;28;20288;-74
2024/04/01 05:03:31;;;;;;;3.22;2.25;;;19.70;95.00;;;;;;5068569;28;20205;-74
2024/04/01 05:05:59;;;;;;;2.53;2.10;;;19.70;95.00;;;;;;5068547;28;20566;-74
2024/04/01 05:08:25;;;;;;;2.40;1.90;;;19.60;95.00;;;;;;5069412;28;20459;-72
2024/04/01 05:10:51;;;;;;;3.63;2.30;;;19.60;95.00;;;;;;5068394;28;20252;-73
2024/04/01 05:13:17;;;;;;;2.40;2.10;;;19.60;95.00;;;;;;5071369;28;20206;-74
2024/04/01 05:15:44;;;;;;;3.03;2.00;;;19.60;95.00;;;;;;5072494;28;20212;-71
2024/04/01 05:18:09;;;;;;;2.53;1.95;;;19.60;95.10;;;;;;5070224;28;20205;-72
2024/04/01 05:20:37;;;;;;;2.40;1.77;;;19.60;95.10;;;;;;5075072;28;20226;-74
2024/04/01 05:23:05;;;;;;;2.58;2.15;;;19.60;95.10;;;;;;5073626;28;20209;-73
2024/04/01 05:25:31;;;;;;;2.45;2.00;;;19.60;95.20;;;;;;5065043;28;20198;-73
2024/04/01 05:27:58;;;;;;;1.80;1.70;;;19.60;95.10;;;;;;5064858;28;20201;-73
2024/04/01 05:30:25;;;;;;;2.15;1.95;;;19.60;95.20;;;;;;5063732;28;20209;-73
2024/04/01 05:32:51;;;;;;;2.55;2.17;;;19.50;95.10;;;;;;5066224;28;20249;-73
2024/04/01 05:35:17;;;;;;;1.73;1.63;;;19.50;95.10;;;;;;5062911;28;20201;-72
2024/04/01 05:37:43;;;;;;;2.13;1.90;;;19.50;95.20;;;;;;5065773;28;20229;-72
2024/04/01 05:40:12;;;;;;;2.60;2.07;;;19.50;95.20;;;;;;5064220;28;20642;-74
2024/04/01 05:42:38;;;;;;;2.30;2.10;;;19.50;95.20;;;;;;5060587;28;20462;-73
2024/04/01 05:45:05;;;;;;;2.73;1.70;;;19.50;95.20;;;;;;5062969;28;20938;-73
2024/04/01 05:47:30;;;;;;;2.45;1.92;;;19.50;95.30;;;;;;5065755;28;20492;-73
2024/04/01 05:49:57;;;;;;;2.03;1.77;;;19.50;95.30;;;;;;5065493;28;20894;-71
2024/04/01 05:52:23;;;;;;;2.40;1.80;;;19.50;95.30;;;;;;5068503;28;20212;-72
2024/04/01 05:54:49;;;;;;;2.37;2.17;;;19.50;95.30;;;;;;5068131;28;20197;-74
2024/04/01 05:57:16;;;;;;;2.17;1.75;;;19.40;95.30;;;;;;5066528;28;20215;-73
2024/04/01 05:59:44;;;;;;;2.00;1.45;;;19.40;95.30;;;;;;5066100;28;20206;-73
2024/04/01 06:02:10;;;;;;;1.38;1.20;;;19.40;95.30;;;;;;5068443;28;20213;-72
2024/04/01 06:04:37;;;;;;;2.00;1.60;;;19.40;95.40;;;;;;5069312;28;20209;-73
2024/04/01 06:07:03;;;;;;;1.90;1.70;;;19.40;95.30;;;;;;5068811;28;20194;-73
2024/04/01 06:09:32;;;;;;;1.95;1.75;;;19.40;95.40;;;;;;5064557;28;20241;-73
2024/04/01 06:11:58;;;;;;;2.90;2.22;;;19.40;95.40;;;;;;5068929;28;20209;-74
2024/04/01 06:14:26;;;;;;;3.60;2.10;;;19.40;95.40;;;;;;5069152;28;20596;-73
2024/04/01 06:16:51;;;;;;;2.80;1.92;;;19.40;95.40;;;;;;5070438;28;20354;-72
2024/04/01 06:19:18;;;;;;;2.77;2.07;;;19.40;95.40;;;;;;5067436;28;20625;-74
2024/04/01 06:21:44;;;;;;;2.22;1.70;;;19.30;95.40;;;;;;5067455;28;20547;-74
2024/04/01 06:24:12;;;;;;;2.63;1.92;;;19.40;95.50;;;;;;5066007;28;20201;-73
2024/04/01 06:26:38;;;;;;;3.10;2.58;;;19.30;95.40;;;;;;5063726;28;20202;-72
2024/04/01 06:29:04;;;;;;;2.00;1.50;;;19.30;95.40;;;;;;5066863;28;20194;-72
2024/04/01 06:31:32;;;;;;;2.72;1.50;;;19.30;95.40;;;;;;5067441;28;20198;-72
2024/04/01 06:33:58;;;;;;;2.45;2.17;;;19.30;95.50;;;;;;5065742;28;20198;-74
2024/04/01 06:36:24;;;;;;;2.17;1.85;;;19.30;95.70;;;;;;5068941;28;20214;-72
2024/04/01 06:38:51;;;;;;;2.17;1.97;;;19.40;95.60;;;;;;5069605;28;20248;-72
2024/04/01 06:41:17;;;;;;;2.15;1.95;;;19.50;95.50;;;;;;5061381;28;20462;-74
2024/04/01 06:43:44;;;;;;;2.47;1.80;;;19.50;95.30;;;;;;5066474;28;20202;-73
2024/04/01 06:46:09;;;;;;;1.90;1.60;;;19.60;95.20;;;;;;5065472;28;20197;-73
2024/04/01 06:48:38;;;;;;;1.83;1.63;;;19.70;95.00;;;;;;5067835;28;20201;-74
2024/04/01 06:51:04;;;;;;;2.03;1.80;;;19.80;94.90;;;;;;5067431;28;20297;-74
2024/04/01 06:53:30;;;;;;;1.85;1.70;;;19.90;94.80;;;;;;5067416;28;20198;-73
2024/04/01 06:55:56;;;;;;;2.60;1.95;;;19.90;94.60;;;;;;5066745;28;20205;-74
2024/04/01 06:58:23;;;;;;;1.90;1.60;;;20.00;94.50;;;;;;5066285;28;20205;-73
2024/04/01 07:00:49;;;;;;;2.45;1.63;;;20.10;94.40;;;;;;5066210;28;20204;-72
2024/04/01 07:03:16;;;;;;;3.05;1.75;;;20.10;94.30;;;;;;5066169;28;20197;-72
2024/04/01 07:05:43;;;;;;;2.10;1.90;;;20.10;94.30;;;;;;5067658;28;20202;-73
2024/04/01 07:08:10;;;;;;;1.70;1.50;;;20.10;94.30;;;;;;5069276;28;20711;-73
2024/04/01 07:10:36;;;;;;;1.80;1.50;;;20.10;94.20;;;;;;5067402;28;20206;-73
2024/04/01 07:13:03;;;;;;;2.13;1.70;;;20.10;94.10;;;;;;5068810;28;20720;-72
2024/04/01 07:15:29;;;;;;;1.70;1.60;;;20.10;94.00;;;;;;5066300;28;20207;-73
2024/04/01 07:17:55;;;;;;;1.80;1.53;;;20.10;94.10;;;;;;5067783;28;20218;-73
2024/04/01 07:20:21;;;;;;;2.35;2.03;;;20.10;94.00;;;;;;5066225;28;21725;-73
2024/04/01 07:22:50;;;;;;;1.80;1.57;;;20.10;94.10;;;;;;5067751;28;20205;-72
2024/04/01 07:25:16;;;;;;;1.67;1.30;;;20.10;94.20;;;;;;5057662;28;20205;-73
2024/04/01 07:27:42;;;;;;;1.70;1.57;;;20.10;94.00;;;;;;5067336;28;20218;-72
2024/04/01 07:30:09;;;;;;;2.40;1.70;;;20.10;93.90;;;;;;5066547;28;21313;-73
2024/04/01 07:32:36;;;;;;;2.00;1.80;;;20.10;93.80;;;;;;5068996;28;20413;-73
2024/04/01 07:35:02;;;;;;;2.15;1.52;;;20.20;93.80;;;;;;5067479;28;20210;-73
2024/04/01 07:37:29;;;;;;;2.07;1.80;;;20.20;93.70;;;;;;5067034;28;20211;-72
2024/04/01 07:39:57;;;;;;;1.70;1.35;;;20.20;93.60;;;;;;5063815;28;20536;-73
2024/04/01 07:42:23;;;;;;;1.80;1.55;;;20.30;93.60;;;;;;5065864;28;20286;-72
2024/04/01 07:44:50;;;;;;;2.42;1.40;;;20.30;93.50;;;;;;5069685;28;20598;-74
2024/04/01 07:47:17;;;;;;;2.30;1.40;;;20.30;93.40;;;;;;5063487;28;20200;-70
2024/04/01 07:49:43;;;;;;;1.85;1.50;;;20.30;93.30;;;;;;5065534;28;20243;-73
2024/04/01 07:52:10;;;;;;;2.67;2.47;;;20.40;93.30;;;;;;5068519;28;20198;-72
2024/04/01 07:54:36;;;;;;;2.00;1.40;;;20.30;93.10;;;;;;5066888;28;20678;-72
2024/04/01 07:57:04;;;;;;;1.97;1.77;;;20.40;93.10;;;;;;5068400;28;20227;-74
2024/04/01 07:59:31;;;;;;;1.45;1.15;;;20.40;93.00;;;;;;5066252;28;20473;-73
2024/04/01 08:01:58;;;;;;;2.92;1.38;;;20.40;93.00;;;;;;5066110;28;20205;-72
2024/04/01 08:04:24;;;;;;;1.60;1.40;;;20.40;92.90;;;;;;5067846;28;20205;-73
2024/04/01 08:06:50;;;;;;;1.57;1.30;;;20.40;92.90;;;;;;5065524;28;20194;-73
2024/04/01 08:09:16;;;;;;;2.35;1.92;;;20.40;92.80;;;;;;5063997;28;20229;-74
2024/04/01 08:11:43;;;;;;;1.73;1.33;;;20.40;92.80;;;;;;5060415;28;21194;-74
2024/04/01 08:14:10;;;;;;;1.58;1.35;;;20.50;92.70;;;;;;5065443;28;20468;-74
2024/04/01 08:16:37;;;;;;;2.20;1.80;;;20.50;92.70;;;;;;5065434;28;20225;-74
2024/04/01 08:19:02;;;;;;;1.50;1.27;;;20.50;92.70;;;;;;5066251;28;20210;-75
2024/04/01 08:21:29;;;;;;;1.90;1.80;;;20.50;92.70;;;;;;5066024;28;20202;-75
2024/04/01 08:23:55;;;;;;;2.47;1.75;;;20.50;92.60;;;;;;5064524;28;20206;-74
2024/04/01 08:26:21;;;;;;;1.43;1.10;;;20.60;92.60;;;;;;5065203;28;21116;-75
2024/04/01 08:28:50;;;;;;;1.67;1.30;;;20.60;92.50;;;;;;5065259;28;20205;-76
2024/04/01 08:31:18;;;;;;;1.90;1.70;;;20.60;92.50;;;;;;5063917;28;20201;-74
2024/04/01 08:33:44;;;;;;;2.67;1.92;;;20.60;92.50;;;;;;5068765;28;20201;-74
2024/04/01 08:36:10;;;;;;;2.17;1.90;;;20.60;92.50;;;;;;5063528;28;20224;-74
2024/04/01 08:38:36;;;;;;;1.55;1.33;;;20.60;92.40;;;;;;5065492;28;20363;-74
2024/04/01 08:41:12;;;;;;;2.03;1.43;;;20.60;92.30;;;;;;5063583;28;20199;-73
2024/04/01 08:43:40;;;;;;;1.50;1.40;;;20.70;92.30;;;;;;5068694;28;21155;-73
2024/04/01 08:46:07;;;;;;;1.50;1.40;;;20.70;92.20;;;;;;5065785;28;20827;-74
2024/04/01 08:48:35;;;;;;;2.03;1.48;;;20.70;92.20;;;;;;5066464;28;20205;-72
2024/04/01 08:51:05;;;;;;;1.85;1.45;;;20.70;92.20;;;;;;5069691;28;20675;-72
2024/04/01 08:53:43;;;;;;;1.90;1.60;;;20.60;92.10;;;;;;5068315;28;20198;-72
2024/04/01 08:56:10;;;;;;;1.90;1.50;;;20.60;92.10;;;;;;5064455;28;20706;-74
2024/04/01 08:58:36;;;;;;;1.45;1.30;;;20.60;92.10;;;;;;5063008;28;21544;-73
2024/04/01 09:01:03;;;;;;;1.60;1.50;;;20.60;92.10;;;;;;5066685;28;20720;-73
2024/04/01 09:03:29;;;;;;;6.82;1.42;;;20.60;91.90;;;;;;5063824;28;20198;-74
2024/04/01 09:05:58;;;;;;;1.93;1.50;;;20.60;92.00;;;;;;5066153;28;20202;-74
2024/04/01 09:08:24;;;;;;;2.87;1.70;;;20.60;92.00;;;;;;5064844;28;20259;-73
2024/04/01 09:10:51;;;;;;;2.20;1.23;;;20.60;91.90;;;;;;5061226;28;20675;-74
2024/04/01 09:13:17;;;;;;;1.95;1.75;;;20.60;91.90;;;;;;5062782;28;20452;-73
2024/04/01 09:15:44;;;;;;;1.50;1.13;;;20.60;91.90;;;;;;5064111;28;20266;-73
2024/04/01 09:18:11;;;;;;;4.40;1.40;;;20.70;91.90;;;;;;5065040;28;20221;-72
2024/04/01 09:20:38;;;;;;;5.78;1.65;;;20.70;91.90;;;;;;5064122;28;20461;-72
2024/04/01 09:23:05;;;;;;;1.42;1.33;;;20.80;91.90;;;;;;5064893;28;20308;-72
2024/04/01 09:25:32;;;;;;;1.60;1.40;;;20.80;91.80;;;;;;5059637;28;20208;-72
2024/04/01 09:27:58;;;;;;;8.53;1.33;;;20.90;91.70;;;;;;5068609;28;20202;-73
2024/04/01 09:30:25;;;;;;;2.10;1.47;;;20.90;91.60;;;;;;5067592;28;20449;-72
2024/04/01 09:32:51;;;;;;;3.40;1.30;;;21.00;91.30;;;;;;5066231;28;20658;-72
2024/04/01 09:35:19;;;;;;;4.50;1.60;;;21.00;91.10;;;;;;5059485;28;20474;-72
2024/04/01 09:37:47;;;;;;;2.73;1.73;;;21.00;91.00;;;;;;5060521;28;21121;-72
2024/04/01 09:40:16;;;;;;;1.60;1.47;;;21.00;90.90;;;;;;5061872;28;20462;-72
2024/04/01 09:42:43;;;;;;;1.67;1.20;;;21.10;90.90;;;;;;5069532;28;20797;-73
2024/04/01 09:45:09;;;;;;;3.00;1.80;;;21.10;90.80;;;;;;5068786;28;20549;-73
2024/04/01 09:47:37;;;;;;;1.77;1.50;;;21.10;90.60;;;;;;5065917;28;20537;-73
2024/04/01 09:50:04;;;;;;;3.00;1.30;;;21.10;90.50;;;;;;5069504;28;20201;-73
2024/04/01 09:52:31;;;;;;;1.70;1.40;;;21.10;90.50;;;;;;5069256;28;20501;-72
2024/04/01 09:55:04;;;;;;;2.70;1.63;;;21.20;90.50;;;;;;5068414;28;20797;-72
2024/04/01 09:58:13;;;;;;;2.53;1.50;;;21.20;90.50;;;;;;5070119;28;20478;-72
2024/04/01 10:00:49;;;;;;;2.03;1.30;;;21.20;90.40;;;;;;5066778;28;20466;-72
2024/04/01 10:03:59;;;;;;;3.67;1.40;;;21.20;90.40;;;;;;5060953;28;20479;-71
2024/04/01 10:07:05;;;;;;;1.47;1.33;;;21.20;90.30;;;;;;5066074;28;20834;-73
2024/04/01 10:10:00;;;;;;;1.67;1.40;;;21.20;90.20;;;;;;5068374;28;20471;-73
2024/04/01 10:13:04;;;;;;;1.60;1.30;;;21.20;90.20;;;;;;5066944;28;20451;-72
2024/04/01 10:16:02;;;;;;;2.90;1.50;;;21.20;90.10;;;;;;5066114;28;20451;-72
2024/04/01 10:18:51;;;;;;;2.50;1.90;;;21.20;90.10;;;;;;5063057;28;20467;-72
2024/04/01 10:21:36;;;;;;;2.40;1.50;;;21.20;90.00;;;;;;5067556;28;21141;-73
2024/04/01 10:24:27;;;;;;;1.83;1.20;;;21.20;89.80;;;;;;5062077;28;20516;-72
2024/04/01 10:27:36;;;;;;;1.80;1.43;;;21.20;89.70;;;;;;5068357;28;20732;-72
2024/04/01 10:30:33;;;;;;;1.70;1.50;;;21.20;89.60;;;;;;5066244;28;20459;-72
2024/04/01 10:33:44;;;;;;;2.30;1.67;;;21.30;89.70;;;;;;5064947;28;20469;-71
2024/04/01 10:36:17;;;;;;;2.17;1.43;;;21.30;89.50;;;;;;5070761;28;20812;-73
2024/04/01 10:39:30;;;;;;;1.63;1.53;;;21.30;89.50;;;;;;5068440;28;20464;-73
2024/04/01 10:42:30;;;;;;;1.70;1.50;;;21.30;89.30;;;;;;5066753;28;20452;-72
2024/04/01 10:45:33;;;;;;;4.53;2.13;;;21.30;89.20;;;;;;5066281;28;20455;-72
2024/04/01 10:48:14;;;;;;;5.27;1.40;;;21.30;89.10;;;;;;5067270;28;20434;-72
2024/04/01 10:51:16;;;;;;;1.40;1.10;;;21.30;89.00;;;;;;5066331;28;20446;-73
2024/04/01 10:54:03;;;;;;;1.10;0.87;;;21.30;88.80;;;;;;5063847;28;20460;-72
2024/04/01 10:57:19;;;;;;;3.57;1.73;;;21.40;88.70;;;;;;5059995;28;20456;-72
2024/04/01 11:00:24;;;;;;;2.33;1.40;;;21.30;88.50;;;;;;5067277;28;20497;-73
2024/04/01 11:03:30;;;;;;;1.90;1.43;;;21.40;88.50;;;;;;5068529;28;20500;-72
2024/04/01 11:06:30;;;;;;;2.17;1.63;;;21.40;88.40;;;;;;5064945;28;20551;-73
2024/04/01 11:09:31;;;;;;;2.00;1.60;;;21.40;88.10;;;;;;5066925;28;20539;-72
2024/04/01 11:12:20;;;;;;;2.03;1.30;;;21.40;88.10;;;;;;5052077;28;20467;-73
2024/04/01 11:14:49;;;;;;;1.50;1.30;;;21.50;88.00;;;;;;5065020;28;20452;-72
2024/04/01 11:17:16;;;;;;;1.90;1.50;;;21.50;87.90;;;;;;5061283;28;21006;-70
2024/04/01 11:19:59;;;;;;;1.40;1.20;;;21.50;87.90;;;;;;5064197;28;20554;-73
2024/04/01 11:22:41;;;;;;;1.40;1.30;;;21.50;87.80;;;;;;5067558;28;21014;-72
2024/04/01 11:25:14;;;;;;;1.90;1.40;;;21.50;87.70;;;;;;5067125;28;20447;-72
2024/04/01 11:27:59;;;;;;;1.23;1.13;;;21.50;87.60;;;;;;5068267;28;20514;-72
2024/04/01 11:30:31;;;;;;;1.50;1.23;;;21.50;87.50;;;;;;5063684;28;20820;-73
2024/04/01 11:33:04;;;;;;;1.50;1.20;;;21.60;87.30;;;;;;5065575;28;20441;-72
2024/04/01 11:35:42;;;;;;;1.93;1.70;;;21.60;87.20;;;;;;5068260;28;22546;-73
2024/04/01 11:38:23;;;;;;;1.67;1.17;;;21.60;87.10;;;;;;5067727;28;20552;-72
2024/04/01 11:40:51;;;;;;;1.40;1.20;;;21.60;87.00;;;;;;5063950;28;20523;-72
2024/04/01 11:43:20;;;;;;;1.87;1.60;;;21.60;87.00;;;;;;5064319;28;21248;-73
2024/04/01 11:45:49;;;;;;;4.17;3.40;;;21.60;84.90;;;;;;5065631;28;20600;-74
2024/04/01 11:48:17;;;;;;;3.80;3.50;;;19.00;83.00;;;;;;5068538;28;20816;-72
2024/04/01 11:50:51;;;;;;;4.93;4.53;;;18.40;87.60;;;;;;5063819;28;20194;-72
2024/04/01 11:53:19;;;;;;;4.65;4.30;;;18.20;87.10;;;;;;5068878;28;20240;-72
2024/04/01 11:55:53;;;;;;;4.82;4.53;;;17.40;88.30;;;;;;5065511;28;20212;-72
2024/04/01 11:58:20;;;;;;;4.63;4.28;;;17.50;90.80;;;;;;5070163;28;20225;-73
2024/04/01 12:00:54;;;;;;;5.22;4.82;;;17.20;91.50;;;;;;5069112;28;20809;-73
2024/04/01 12:03:21;;;;;;;4.90;4.30;;;17.20;91.60;;;;;;5067594;28;20212;-72
2024/04/01 12:05:49;;;;;;;5.00;4.60;;;17.50;92.10;;;;;;5064844;28;20243;-72
2024/04/01 12:08:15;;;;;;;3.97;3.60;;;17.40;91.70;;;;;;5067995;28;20765;-74
2024/04/01 12:10:46;;;;;;;2.10;1.90;;;17.30;92.40;;;;;;5067791;28;20194;-72
2024/04/01 12:13:13;;;;;;;1.75;1.50;;;19.00;92.30;;;;;;5069700;28;20612;-73
2024/04/01 12:15:40;;;;;;;2.47;1.92;;;19.80;91.00;;;;;;5067393;28;20307;-72
2024/04/01 12:18:06;;;;;;;2.55;1.52;;;20.20;90.40;;;;;;5065519;28;20220;-73
2024/04/01 12:20:34;;;;;;;2.88;1.48;;;20.50;90.00;;;;;;5068359;28;20307;-75
2024/04/01 12:23:05;;;;;;;1.73;1.33;;;20.80;89.50;;;;;;5067422;28;20296;-73
2024/04/01 12:25:32;;;;;;;1.30;1.20;;;20.90;89.20;;;;;;5069849;28;20504;-73
2024/04/01 12:28:02;;;;;;;1.50;1.20;;;21.00;88.80;;;;;;5069913;28;20959;-73
2024/04/01 12:30:29;;;;;;;2.85;1.30;;;21.20;88.90;;;;;;5067280;28;20448;-72
2024/04/01 12:32:55;;;;;;;1.93;1.53;;;21.20;88.60;;;;;;5067989;28;20214;-74
2024/04/01 12:35:25;;;;;;;3.20;1.30;;;21.30;88.90;;;;;;5060661;28;20455;-73
2024/04/01 12:37:51;;;;;;;1.37;0.90;;;21.40;88.70;;;;;;5067913;28;20479;-74
2024/04/01 12:40:19;;;;;;;1.30;1.03;;;21.40;88.50;;;;;;5068049;28;20458;-73
2024/04/01 12:42:44;;;;;;;1.50;1.23;;;21.50;88.40;;;;;;5064604;28;20968;-72
2024/04/01 12:45:13;;;;;;;1.70;1.10;;;21.50;88.30;;;;;;5066970;28;20450;-73
2024/04/01 12:47:39;;;;;;;1.90;1.10;;;21.60;88.30;;;;;;5068857;28;20206;-73
2024/04/01 12:50:10;;;;;;;1.13;0.97;;;21.60;88.10;;;;;;5068737;28;20458;-72
2024/04/01 12:52:44;;;;;;;1.20;1.03;;;21.60;87.90;;;;;;5067632;28;20484;-73
2024/04/01 12:55:19;;;;;;;1.10;0.90;;;21.60;87.80;;;;;;5064626;28;20539;-73
2024/04/01 12:57:59;;;;;;;1.60;1.00;;;21.70;87.80;;;;;;5069808;28;20475;-72
2024/04/01 13:00:31;;;;;;;2.83;1.17;;;21.70;87.70;;;;;;5069666;28;20439;-72